Vraca, Bulgaria
Current Conditions -  °F | °C
As of 12:30 AM on Tuesday 25 Nov 2014 (Local Time) from LBSF Reporting Station
Broken Clouds Broken Clouds  
Wind Chill: 34°   Ceiling: 6900
Heat Index: 34°   Visibility: 6mi
Dew Point: 30°   Wind: 2mph
Humidity: 87%   Direction: NA
Pressure: 30.33"   Gusts: NA
Location:  43.22°N, 23.56°E
Report Text: LBSF 242130Z VRB01MPS 9999 BKN069 01/M01 Q1027 NOSIG
Loading
Personal Weather Stations






























Interactive Weather Map New forecast layout! Learn more

10-Day Weather Forecast

Advertisements
Track Severe Weather on mobile